sensor_id;sensor_type;location;lat;lon;timestamp;P1;durP1;ratioP1;P2;durP2;ratioP2
1346;SDS011;667;48.796;9.480;2023-02-22T00:00:48;3.92;;;3.30;;
1346;SDS011;667;48.796;9.480;2023-02-22T00:03:21;3.53;;;3.10;;
1346;SDS011;667;48.796;9.480;2023-02-22T00:08:19;4.63;;;3.38;;
1346;SDS011;667;48.796;9.480;2023-02-22T00:10:46;2.85;;;2.65;;
1346;SDS011;667;48.796;9.480;2023-02-22T00:13:15;5.68;;;3.60;;
1346;SDS011;667;48.796;9.480;2023-02-22T00:15:41;3.40;;;3.10;;
1346;SDS011;667;48.796;9.480;2023-02-22T00:18:08;4.10;;;3.70;;
1346;SDS011;667;48.796;9.480;2023-02-22T00:20:36;5.28;;;3.97;;
1346;SDS011;667;48.796;9.480;2023-02-22T00:23:03;4.43;;;4.00;;
1346;SDS011;667;48.796;9.480;2023-02-22T00:25:31;5.75;;;4.00;;
1346;SDS011;667;48.796;9.480;2023-02-22T00:27:58;4.18;;;3.15;;
1346;SDS011;667;48.796;9.480;2023-02-22T00:30:26;5.47;;;3.85;;
1346;SDS011;667;48.796;9.480;2023-02-22T00:32:54;4.40;;;3.55;;
1346;SDS011;667;48.796;9.480;2023-02-22T00:35:21;3.70;;;3.40;;
1346;SDS011;667;48.796;9.480;2023-02-22T00:37:52;5.97;;;4.18;;
1346;SDS011;667;48.796;9.480;2023-02-22T00:40:20;5.40;;;4.90;;
1346;SDS011;667;48.796;9.480;2023-02-22T00:42:47;4.90;;;3.83;;
1346;SDS011;667;48.796;9.480;2023-02-22T00:45:17;5.55;;;4.97;;
1346;SDS011;667;48.796;9.480;2023-02-22T00:47:44;7.03;;;4.13;;
1346;SDS011;667;48.796;9.480;2023-02-22T00:50:10;4.30;;;3.90;;
1346;SDS011;667;48.796;9.480;2023-02-22T00:52:36;5.30;;;4.27;;
1346;SDS011;667;48.796;9.480;2023-02-22T00:55:04;5.47;;;4.90;;
1346;SDS011;667;48.796;9.480;2023-02-22T00:57:31;6.22;;;4.47;;
1346;SDS011;667;48.796;9.480;2023-02-22T00:59:59;5.25;;;4.00;;
1346;SDS011;667;48.796;9.480;2023-02-22T01:02:25;5.15;;;4.30;;
1346;SDS011;667;48.796;9.480;2023-02-22T01:04:50;4.53;;;4.13;;
1346;SDS011;667;48.796;9.480;2023-02-22T01:07:16;4.67;;;3.90;;
1346;SDS011;667;48.796;9.480;2023-02-22T01:09:41;5.47;;;4.27;;
1346;SDS011;667;48.796;9.480;2023-02-22T01:12:08;6.43;;;4.45;;
1346;SDS011;667;48.796;9.480;2023-02-22T01:14:33;6.50;;;4.97;;
1346;SDS011;667;48.796;9.480;2023-02-22T01:16:59;7.17;;;5.27;;
1346;SDS011;667;48.796;9.480;2023-02-22T01:19:24;7.33;;;5.10;;
1346;SDS011;667;48.796;9.480;2023-02-22T01:21:50;5.80;;;4.93;;
1346;SDS011;667;48.796;9.480;2023-02-22T01:24:16;7.60;;;4.67;;
1346;SDS011;667;48.796;9.480;2023-02-22T01:26:42;6.80;;;4.75;;
1346;SDS011;667;48.796;9.480;2023-02-22T01:29:13;6.70;;;4.60;;
1346;SDS011;667;48.796;9.480;2023-02-22T01:31:43;6.10;;;4.95;;
1346;SDS011;667;48.796;9.480;2023-02-22T01:34:17;7.35;;;5.38;;
1346;SDS011;667;48.796;9.480;2023-02-22T01:36:42;6.63;;;5.38;;
1346;SDS011;667;48.796;9.480;2023-02-22T01:39:08;9.57;;;5.17;;
1346;SDS011;667;48.796;9.480;2023-02-22T01:41:36;6.13;;;5.53;;
1346;SDS011;667;48.796;9.480;2023-02-22T01:46:56;5.55;;;5.00;;
1346;SDS011;667;48.796;9.480;2023-02-22T01:49:26;5.70;;;5.05;;
1346;SDS011;667;48.796;9.480;2023-02-22T01:51:57;5.93;;;5.43;;
1346;SDS011;667;48.796;9.480;2023-02-22T01:54:30;5.95;;;4.95;;
1346;SDS011;667;48.796;9.480;2023-02-22T01:59:30;6.07;;;5.03;;
1346;SDS011;667;48.796;9.480;2023-02-22T02:01:59;6.95;;;5.20;;
1346;SDS011;667;48.796;9.480;2023-02-22T02:04:28;5.90;;;5.22;;
1346;SDS011;667;48.796;9.480;2023-02-22T02:06:56;4.90;;;4.43;;
1346;SDS011;667;48.796;9.480;2023-02-22T02:09:32;6.07;;;4.75;;
1346;SDS011;667;48.796;9.480;2023-02-22T02:12:00;5.57;;;4.97;;
1346;SDS011;667;48.796;9.480;2023-02-22T02:14:28;7.82;;;5.32;;
1346;SDS011;667;48.796;9.480;2023-02-22T02:16:57;5.85;;;4.85;;
1346;SDS011;667;48.796;9.480;2023-02-22T02:25:24;5.90;;;4.95;;
1346;SDS011;667;48.796;9.480;2023-02-22T02:33:56;5.80;;;5.20;;
1346;SDS011;667;48.796;9.480;2023-02-22T02:42:06;8.40;;;4.45;;
1346;SDS011;667;48.796;9.480;2023-02-22T02:44:36;10.90;;;4.97;;
1346;SDS011;667;48.796;9.480;2023-02-22T02:47:09;7.28;;;5.40;;
1346;SDS011;667;48.796;9.480;2023-02-22T02:49:40;5.22;;;4.72;;
1346;SDS011;667;48.796;9.480;2023-02-22T02:52:31;4.70;;;4.30;;
1346;SDS011;667;48.796;9.480;2023-02-22T02:54:59;5.93;;;5.38;;
1346;SDS011;667;48.796;9.480;2023-02-22T02:57:27;5.70;;;5.20;;
1346;SDS011;667;48.796;9.480;2023-02-22T02:59:52;6.20;;;4.60;;
1346;SDS011;667;48.796;9.480;2023-02-22T03:13:39;7.97;;;5.13;;
1346;SDS011;667;48.796;9.480;2023-02-22T03:16:34;6.35;;;4.70;;
1346;SDS011;667;48.796;9.480;2023-02-22T03:19:39;4.78;;;4.30;;
1346;SDS011;667;48.796;9.480;2023-02-22T03:22:44;7.15;;;4.60;;
1346;SDS011;667;48.796;9.480;2023-02-22T03:25:22;5.30;;;4.80;;
1346;SDS011;667;48.796;9.480;2023-02-22T03:27:59;6.03;;;5.45;;
1346;SDS011;667;48.796;9.480;2023-02-22T03:30:36;7.53;;;5.88;;
1346;SDS011;667;48.796;9.480;2023-02-22T03:33:08;7.50;;;4.72;;
1346;SDS011;667;48.796;9.480;2023-02-22T03:36:15;5.82;;;4.75;;
1346;SDS011;667;48.796;9.480;2023-02-22T03:38:44;6.65;;;4.90;;
1346;SDS011;667;48.796;9.480;2023-02-22T03:41:11;7.20;;;4.97;;
1346;SDS011;667;48.796;9.480;2023-02-22T03:43:42;5.20;;;4.68;;
1346;SDS011;667;48.796;9.480;2023-02-22T03:46:10;7.68;;;6.00;;
1346;SDS011;667;48.796;9.480;2023-02-22T03:48:49;5.57;;;5.05;;
1346;SDS011;667;48.796;9.480;2023-02-22T03:51:34;6.80;;;6.10;;
1346;SDS011;667;48.796;9.480;2023-02-22T03:54:01;5.60;;;4.97;;
1346;SDS011;667;48.796;9.480;2023-02-22T03:56:29;7.18;;;5.20;;
1346;SDS011;667;48.796;9.480;2023-02-22T03:59:01;6.45;;;5.60;;
1346;SDS011;667;48.796;9.480;2023-02-22T04:01:32;5.72;;;5.10;;
1346;SDS011;667;48.796;9.480;2023-02-22T04:03:58;5.95;;;5.32;;
1346;SDS011;667;48.796;9.480;2023-02-22T04:06:24;7.73;;;5.63;;
1346;SDS011;667;48.796;9.480;2023-02-22T04:08:50;7.03;;;6.43;;
1346;SDS011;667;48.796;9.480;2023-02-22T04:11:15;5.80;;;5.30;;
1346;SDS011;667;48.796;9.480;2023-02-22T04:13:41;7.50;;;4.90;;
1346;SDS011;667;48.796;9.480;2023-02-22T04:16:06;7.03;;;5.30;;
1346;SDS011;667;48.796;9.480;2023-02-22T04:18:32;9.70;;;6.27;;
1346;SDS011;667;48.796;9.480;2023-02-22T04:20:58;6.60;;;6.00;;
1346;SDS011;667;48.796;9.480;2023-02-22T04:23:23;7.10;;;6.40;;
1346;SDS011;667;48.796;9.480;2023-02-22T04:25:50;8.70;;;6.13;;
1346;SDS011;667;48.796;9.480;2023-02-22T04:28:16;9.73;;;7.40;;
1346;SDS011;667;48.796;9.480;2023-02-22T04:30:42;9.75;;;6.97;;
1346;SDS011;667;48.796;9.480;2023-02-22T04:33:08;7.33;;;6.50;;
1346;SDS011;667;48.796;9.480;2023-02-22T04:35:34;8.77;;;6.35;;
1346;SDS011;667;48.796;9.480;2023-02-22T04:38:00;9.03;;;6.13;;
1346;SDS011;667;48.796;9.480;2023-02-22T04:40:26;7.75;;;6.38;;
1346;SDS011;667;48.796;9.480;2023-02-22T04:42:52;11.43;;;6.73;;
1346;SDS011;667;48.796;9.480;2023-02-22T04:45:17;7.30;;;5.90;;
1346;SDS011;667;48.796;9.480;2023-02-22T04:47:43;7.50;;;6.53;;
1346;SDS011;667;48.796;9.480;2023-02-22T04:50:09;7.30;;;6.50;;
1346;SDS011;667;48.796;9.480;2023-02-22T04:52:36;11.40;;;7.30;;
1346;SDS011;667;48.796;9.480;2023-02-22T04:55:02;6.70;;;6.10;;
1346;SDS011;667;48.796;9.480;2023-02-22T04:57:28;8.07;;;6.72;;
1346;SDS011;667;48.796;9.480;2023-02-22T04:59:54;8.00;;;6.80;;
1346;SDS011;667;48.796;9.480;2023-02-22T05:02:20;11.73;;;8.10;;
1346;SDS011;667;48.796;9.480;2023-02-22T05:04:46;7.37;;;6.67;;
1346;SDS011;667;48.796;9.480;2023-02-22T05:07:11;8.77;;;6.80;;
1346;SDS011;667;48.796;9.480;2023-02-22T05:09:37;10.53;;;6.40;;
1346;SDS011;667;48.796;9.480;2023-02-22T05:12:03;7.30;;;6.50;;
1346;SDS011;667;48.796;9.480;2023-02-22T05:14:28;7.40;;;6.67;;
1346;SDS011;667;48.796;9.480;2023-02-22T05:16:57;7.83;;;6.40;;
1346;SDS011;667;48.796;9.480;2023-02-22T05:19:23;7.15;;;6.45;;
1346;SDS011;667;48.796;9.480;2023-02-22T05:21:49;7.83;;;6.40;;
1346;SDS011;667;48.796;9.480;2023-02-22T05:24:14;8.10;;;6.97;;
1346;SDS011;667;48.796;9.480;2023-02-22T05:26:44;7.75;;;7.05;;
1346;SDS011;667;48.796;9.480;2023-02-22T05:29:10;7.93;;;7.13;;
1346;SDS011;667;48.796;9.480;2023-02-22T05:31:36;8.30;;;6.40;;
1346;SDS011;667;48.796;9.480;2023-02-22T05:34:01;10.90;;;7.30;;
1346;SDS011;667;48.796;9.480;2023-02-22T05:36:27;8.30;;;7.43;;
1346;SDS011;667;48.796;9.480;2023-02-22T05:38:53;9.13;;;7.10;;
1346;SDS011;667;48.796;9.480;2023-02-22T05:41:19;8.43;;;7.32;;
1346;SDS011;667;48.796;9.480;2023-02-22T05:43:45;10.17;;;7.40;;
1346;SDS011;667;48.796;9.480;2023-02-22T05:46:11;7.63;;;6.65;;
1346;SDS011;667;48.796;9.480;2023-02-22T05:48:38;8.48;;;6.50;;
1346;SDS011;667;48.796;9.480;2023-02-22T05:51:04;7.87;;;6.40;;
1346;SDS011;667;48.796;9.480;2023-02-22T05:53:30;8.52;;;7.25;;
1346;SDS011;667;48.796;9.480;2023-02-22T05:55:56;7.47;;;6.77;;
1346;SDS011;667;48.796;9.480;2023-02-22T05:58:21;9.43;;;7.10;;
1346;SDS011;667;48.796;9.480;2023-02-22T06:00:47;7.40;;;6.80;;
1346;SDS011;667;48.796;9.480;2023-02-22T06:03:12;7.43;;;6.73;;
1346;SDS011;667;48.796;9.480;2023-02-22T06:05:38;8.07;;;6.77;;
1346;SDS011;667;48.796;9.480;2023-02-22T06:08:04;8.50;;;6.50;;
1346;SDS011;667;48.796;9.480;2023-02-22T06:10:31;8.65;;;6.80;;
1346;SDS011;667;48.796;9.480;2023-02-22T06:12:57;7.70;;;7.00;;
1346;SDS011;667;48.796;9.480;2023-02-22T06:15:24;6.85;;;6.15;;
1346;SDS011;667;48.796;9.480;2023-02-22T06:17:50;7.45;;;6.70;;
1346;SDS011;667;48.796;9.480;2023-02-22T06:20:18;8.05;;;7.35;;
1346;SDS011;667;48.796;9.480;2023-02-22T06:22:46;7.32;;;6.63;;
1346;SDS011;667;48.796;9.480;2023-02-22T06:25:13;8.32;;;5.80;;
1346;SDS011;667;48.796;9.480;2023-02-22T06:27:40;6.72;;;6.13;;
1346;SDS011;667;48.796;9.480;2023-02-22T06:30:07;7.40;;;6.37;;
1346;SDS011;667;48.796;9.480;2023-02-22T06:32:33;11.80;;;6.30;;
1346;SDS011;667;48.796;9.480;2023-02-22T06:34:59;7.40;;;6.70;;
1346;SDS011;667;48.796;9.480;2023-02-22T06:37:24;7.70;;;6.80;;
1346;SDS011;667;48.796;9.480;2023-02-22T06:39:50;8.50;;;7.00;;
1346;SDS011;667;48.796;9.480;2023-02-22T06:42:16;9.13;;;6.30;;
1346;SDS011;667;48.796;9.480;2023-02-22T06:44:41;6.87;;;5.93;;
1346;SDS011;667;48.796;9.480;2023-02-22T06:47:07;7.73;;;6.70;;
1346;SDS011;667;48.796;9.480;2023-02-22T06:49:32;7.83;;;7.03;;
1346;SDS011;667;48.796;9.480;2023-02-22T06:51:58;11.37;;;7.73;;
1346;SDS011;667;48.796;9.480;2023-02-22T06:54:23;7.43;;;6.40;;
1346;SDS011;667;48.796;9.480;2023-02-22T06:56:49;6.73;;;6.13;;
1346;SDS011;667;48.796;9.480;2023-02-22T06:59:15;7.70;;;6.83;;
1346;SDS011;667;48.796;9.480;2023-02-22T07:01:41;7.20;;;5.63;;
1346;SDS011;667;48.796;9.480;2023-02-22T07:04:07;8.48;;;7.25;;
1346;SDS011;667;48.796;9.480;2023-02-22T07:06:33;8.27;;;7.40;;
1346;SDS011;667;48.796;9.480;2023-02-22T07:08:58;6.93;;;6.10;;
1346;SDS011;667;48.796;9.480;2023-02-22T07:11:25;7.53;;;6.25;;
1346;SDS011;667;48.796;9.480;2023-02-22T07:13:50;8.97;;;6.07;;
1346;SDS011;667;48.796;9.480;2023-02-22T07:16:16;7.10;;;6.17;;
1346;SDS011;667;48.796;9.480;2023-02-22T07:18:41;8.40;;;6.67;;
1346;SDS011;667;48.796;9.480;2023-02-22T07:21:07;8.27;;;6.63;;
1346;SDS011;667;48.796;9.480;2023-02-22T07:23:32;7.37;;;6.67;;
1346;SDS011;667;48.796;9.480;2023-02-22T07:25:59;7.00;;;6.30;;
1346;SDS011;667;48.796;9.480;2023-02-22T07:28:25;7.22;;;6.53;;
1346;SDS011;667;48.796;9.480;2023-02-22T07:30:51;7.47;;;6.40;;
1346;SDS011;667;48.796;9.480;2023-02-22T07:33:16;8.07;;;7.20;;
1346;SDS011;667;48.796;9.480;2023-02-22T07:35:43;7.10;;;6.40;;
1346;SDS011;667;48.796;9.480;2023-02-22T07:38:13;7.85;;;6.93;;
1346;SDS011;667;48.796;9.480;2023-02-22T07:40:40;9.68;;;8.13;;
1346;SDS011;667;48.796;9.480;2023-02-22T07:43:22;10.27;;;8.35;;
1346;SDS011;667;48.796;9.480;2023-02-22T07:45:50;10.07;;;8.98;;
1346;SDS011;667;48.796;9.480;2023-02-22T07:48:18;11.57;;;9.35;;
1346;SDS011;667;48.796;9.480;2023-02-22T07:50:46;11.07;;;9.35;;
1346;SDS011;667;48.796;9.480;2023-02-22T07:53:17;11.65;;;9.23;;
1346;SDS011;667;48.796;9.480;2023-02-22T07:55:45;14.93;;;10.35;;
1346;SDS011;667;48.796;9.480;2023-02-22T07:58:14;11.98;;;10.63;;
1346;SDS011;667;48.796;9.480;2023-02-22T08:00:41;14.50;;;10.50;;
1346;SDS011;667;48.796;9.480;2023-02-22T08:03:09;12.45;;;10.15;;
1346;SDS011;667;48.796;9.480;2023-02-22T08:05:36;10.45;;;9.45;;
1346;SDS011;667;48.796;9.480;2023-02-22T08:08:03;11.07;;;9.35;;
1346;SDS011;667;48.796;9.480;2023-02-22T08:10:30;11.48;;;10.27;;
1346;SDS011;667;48.796;9.480;2023-02-22T08:12:56;10.15;;;9.00;;
1346;SDS011;667;48.796;9.480;2023-02-22T08:15:24;11.63;;;9.52;;
1346;SDS011;667;48.796;9.480;2023-02-22T08:17:50;13.10;;;9.40;;
1346;SDS011;667;48.796;9.480;2023-02-22T08:20:17;11.32;;;10.23;;
1346;SDS011;667;48.796;9.480;2023-02-22T08:22:43;10.32;;;9.20;;
1346;SDS011;667;48.796;9.480;2023-02-22T08:25:09;11.00;;;9.75;;
1346;SDS011;667;48.796;9.480;2023-02-22T08:27:35;13.57;;;10.02;;
1346;SDS011;667;48.796;9.480;2023-02-22T08:30:01;11.07;;;9.83;;
1346;SDS011;667;48.796;9.480;2023-02-22T08:32:27;10.40;;;9.30;;
1346;SDS011;667;48.796;9.480;2023-02-22T08:34:53;13.20;;;10.27;;
1346;SDS011;667;48.796;9.480;2023-02-22T08:37:18;11.83;;;9.67;;
1346;SDS011;667;48.796;9.480;2023-02-22T08:39:44;11.10;;;9.97;;
1346;SDS011;667;48.796;9.480;2023-02-22T08:42:09;11.27;;;9.97;;
1346;SDS011;667;48.796;9.480;2023-02-22T08:44:36;13.97;;;10.27;;
1346;SDS011;667;48.796;9.480;2023-02-22T08:47:02;10.27;;;8.48;;
1346;SDS011;667;48.796;9.480;2023-02-22T08:49:28;11.80;;;8.80;;
1346;SDS011;667;48.796;9.480;2023-02-22T08:51:53;11.70;;;9.03;;
1346;SDS011;667;48.796;9.480;2023-02-22T08:54:19;10.53;;;9.43;;
1346;SDS011;667;48.796;9.480;2023-02-22T08:56:46;10.40;;;9.27;;
1346;SDS011;667;48.796;9.480;2023-02-22T08:59:12;9.03;;;8.10;;
1346;SDS011;667;48.796;9.480;2023-02-22T09:01:38;9.43;;;8.30;;
1346;SDS011;667;48.796;9.480;2023-02-22T09:04:03;10.37;;;8.90;;
1346;SDS011;667;48.796;9.480;2023-02-22T09:06:29;11.00;;;9.90;;
1346;SDS011;667;48.796;9.480;2023-02-22T09:08:54;10.27;;;9.23;;
1346;SDS011;667;48.796;9.480;2023-02-22T09:11:20;10.93;;;9.83;;
1346;SDS011;667;48.796;9.480;2023-02-22T09:13:46;13.27;;;12.07;;
1346;SDS011;667;48.796;9.480;2023-02-22T09:16:11;9.77;;;8.73;;
1346;SDS011;667;48.796;9.480;2023-02-22T09:18:37;11.30;;;10.17;;
1346;SDS011;667;48.796;9.480;2023-02-22T09:21:03;13.03;;;9.97;;
1346;SDS011;667;48.796;9.480;2023-02-22T09:23:29;12.02;;;10.77;;
1346;SDS011;667;48.796;9.480;2023-02-22T09:25:54;11.90;;;10.70;;
1346;SDS011;667;48.796;9.480;2023-02-22T09:28:20;12.70;;;11.40;;
1346;SDS011;667;48.796;9.480;2023-02-22T09:30:46;11.40;;;10.30;;
1346;SDS011;667;48.796;9.480;2023-02-22T09:33:13;13.00;;;11.23;;
1346;SDS011;667;48.796;9.480;2023-02-22T09:35:40;10.77;;;9.65;;
1346;SDS011;667;48.796;9.480;2023-02-22T09:38:10;13.73;;;11.07;;
1346;SDS011;667;48.796;9.480;2023-02-22T09:40:39;10.80;;;9.73;;
1346;SDS011;667;48.796;9.480;2023-02-22T09:45:44;10.20;;;9.40;;
1346;SDS011;667;48.796;9.480;2023-02-22T09:48:31;10.65;;;9.65;;
1346;SDS011;667;48.796;9.480;2023-02-22T09:51:00;11.60;;;9.25;;
1346;SDS011;667;48.796;9.480;2023-02-22T09:53:41;12.20;;;8.30;;
1346;SDS011;667;48.796;9.480;2023-02-22T09:56:11;9.75;;;8.55;;
1346;SDS011;667;48.796;9.480;2023-02-22T09:58:44;10.20;;;9.20;;
1346;SDS011;667;48.796;9.480;2023-02-22T10:09:31;9.57;;;8.68;;
1346;SDS011;667;48.796;9.480;2023-02-22T10:12:04;12.35;;;8.15;;
1346;SDS011;667;48.796;9.480;2023-02-22T10:17:46;11.13;;;9.07;;
1346;SDS011;667;48.796;9.480;2023-02-22T10:23:03;10.88;;;9.75;;
1346;SDS011;667;48.796;9.480;2023-02-22T10:25:44;11.18;;;10.02;;
1346;SDS011;667;48.796;9.480;2023-02-22T10:31:01;10.23;;;9.23;;
1346;SDS011;667;48.796;9.480;2023-02-22T10:33:32;11.32;;;9.18;;
1346;SDS011;667;48.796;9.480;2023-02-22T10:36:04;14.88;;;10.07;;
1346;SDS011;667;48.796;9.480;2023-02-22T10:38:34;13.38;;;10.32;;
1346;SDS011;667;48.796;9.480;2023-02-22T10:43:38;12.85;;;9.43;;
1346;SDS011;667;48.796;9.480;2023-02-22T10:46:06;10.50;;;9.53;;
1346;SDS011;667;48.796;9.480;2023-02-22T10:48:36;12.97;;;9.60;;
1346;SDS011;667;48.796;9.480;2023-02-22T10:51:05;12.10;;;9.80;;
1346;SDS011;667;48.796;9.480;2023-02-22T10:53:33;10.40;;;9.40;;
1346;SDS011;667;48.796;9.480;2023-02-22T10:56:20;10.87;;;9.80;;
1346;SDS011;667;48.796;9.480;2023-02-22T10:59:01;9.80;;;8.80;;
1346;SDS011;667;48.796;9.480;2023-02-22T11:03:56;8.93;;;8.10;;
1346;SDS011;667;48.796;9.480;2023-02-22T11:06:22;10.00;;;9.00;;
1346;SDS011;667;48.796;9.480;2023-02-22T11:08:48;8.03;;;7.23;;
1346;SDS011;667;48.796;9.480;2023-02-22T11:11:25;6.87;;;6.20;;
1346;SDS011;667;48.796;9.480;2023-02-22T11:13:56;9.83;;;7.37;;
1346;SDS011;667;48.796;9.480;2023-02-22T11:21:50;8.67;;;7.00;;
1346;SDS011;667;48.796;9.480;2023-02-22T11:24:21;11.23;;;8.33;;
1346;SDS011;667;48.796;9.480;2023-02-22T11:26:50;9.43;;;7.90;;
1346;SDS011;667;48.796;9.480;2023-02-22T11:29:27;11.10;;;7.50;;
1346;SDS011;667;48.796;9.480;2023-02-22T11:32:17;8.20;;;6.40;;
1346;SDS011;667;48.796;9.480;2023-02-22T11:34:46;10.60;;;8.77;;
1346;SDS011;667;48.796;9.480;2023-02-22T11:37:35;9.60;;;7.37;;
1346;SDS011;667;48.796;9.480;2023-02-22T11:40:21;10.77;;;7.17;;
1346;SDS011;667;48.796;9.480;2023-02-22T11:45:47;8.33;;;7.43;;
1346;SDS011;667;48.796;9.480;2023-02-22T11:48:24;8.50;;;7.10;;
1346;SDS011;667;48.796;9.480;2023-02-22T11:53:42;9.90;;;8.07;;
1346;SDS011;667;48.796;9.480;2023-02-22T12:02:03;8.53;;;7.43;;
1346;SDS011;667;48.796;9.480;2023-02-22T12:20:56;13.52;;;9.27;;
1346;SDS011;667;48.796;9.480;2023-02-22T12:26:28;28.20;;;14.53;;
1346;SDS011;667;48.796;9.480;2023-02-22T12:29:08;14.23;;;10.60;;
1346;SDS011;667;48.796;9.480;2023-02-22T12:31:45;14.07;;;8.47;;
1346;SDS011;667;48.796;9.480;2023-02-22T12:37:04;20.97;;;11.50;;
1346;SDS011;667;48.796;9.480;2023-02-22T12:40:00;10.73;;;9.70;;
1346;SDS011;667;48.796;9.480;2023-02-22T12:45:05;9.53;;;8.53;;
1346;SDS011;667;48.796;9.480;2023-02-22T12:47:42;10.73;;;9.43;;
1346;SDS011;667;48.796;9.480;2023-02-22T12:50:16;12.60;;;9.32;;
1346;SDS011;667;48.796;9.480;2023-02-22T12:55:49;12.33;;;8.90;;
1346;SDS011;667;48.796;9.480;2023-02-22T12:58:22;11.20;;;9.70;;
1346;SDS011;667;48.796;9.480;2023-02-22T13:03:36;9.90;;;8.90;;
1346;SDS011;667;48.796;9.480;2023-02-22T13:08:51;12.40;;;9.73;;
1346;SDS011;667;48.796;9.480;2023-02-22T13:13:53;10.70;;;9.60;;
1346;SDS011;667;48.796;9.480;2023-02-22T13:16:51;10.10;;;9.10;;
1346;SDS011;667;48.796;9.480;2023-02-22T13:19:29;11.00;;;8.97;;
1346;SDS011;667;48.796;9.480;2023-02-22T13:22:07;9.97;;;8.97;;
1346;SDS011;667;48.796;9.480;2023-02-22T13:24:45;9.47;;;8.33;;
1346;SDS011;667;48.796;9.480;2023-02-22T13:27:36;10.73;;;8.60;;
1346;SDS011;667;48.796;9.480;2023-02-22T13:30:49;8.97;;;8.07;;
1346;SDS011;667;48.796;9.480;2023-02-22T13:41:37;9.30;;;8.03;;
1346;SDS011;667;48.796;9.480;2023-02-22T13:52:43;11.77;;;8.60;;
1346;SDS011;667;48.796;9.480;2023-02-22T13:55:31;9.40;;;8.13;;
1346;SDS011;667;48.796;9.480;2023-02-22T13:58:02;10.73;;;8.23;;
1346;SDS011;667;48.796;9.480;2023-02-22T14:00:50;9.40;;;7.60;;
1346;SDS011;667;48.796;9.480;2023-02-22T14:06:00;10.50;;;7.90;;
1346;SDS011;667;48.796;9.480;2023-02-22T14:10:59;11.77;;;9.10;;
1346;SDS011;667;48.796;9.480;2023-02-22T14:14:07;12.23;;;10.07;;
1346;SDS011;667;48.796;9.480;2023-02-22T14:16:23;11.33;;;10.17;;
1346;SDS011;667;48.796;9.480;2023-02-22T14:21:30;10.07;;;9.07;;
1346;SDS011;667;48.796;9.480;2023-02-22T14:24:06;10.40;;;7.90;;
1346;SDS011;667;48.796;9.480;2023-02-22T14:26:36;11.37;;;8.33;;
1346;SDS011;667;48.796;9.480;2023-02-22T14:34:10;11.23;;;8.93;;
1346;SDS011;667;48.796;9.480;2023-02-22T14:39:26;10.30;;;9.27;;
1346;SDS011;667;48.796;9.480;2023-02-22T14:47:26;12.68;;;10.20;;
1346;SDS011;667;48.796;9.480;2023-02-22T14:49:56;11.07;;;8.03;;
1346;SDS011;667;48.796;9.480;2023-02-22T14:52:29;12.47;;;8.47;;
1346;SDS011;667;48.796;9.480;2023-02-22T14:55:03;9.90;;;8.70;;
1346;SDS011;667;48.796;9.480;2023-02-22T14:57:57;8.97;;;8.07;;
1346;SDS011;667;48.796;9.480;2023-02-22T15:00:26;13.43;;;11.63;;
1346;SDS011;667;48.796;9.480;2023-02-22T15:03:01;11.83;;;10.67;;
1346;SDS011;667;48.796;9.480;2023-02-22T15:05:28;11.77;;;10.57;;
1346;SDS011;667;48.796;9.480;2023-02-22T15:08:02;13.33;;;11.83;;
1346;SDS011;667;48.796;9.480;2023-02-22T15:13:18;16.87;;;12.17;;
1346;SDS011;667;48.796;9.480;2023-02-22T15:15:56;19.07;;;15.77;;
1346;SDS011;667;48.796;9.480;2023-02-22T15:18:28;15.63;;;14.03;;
1346;SDS011;667;48.796;9.480;2023-02-22T15:21:08;15.10;;;12.90;;
1346;SDS011;667;48.796;9.480;2023-02-22T15:23:46;15.20;;;12.80;;
1346;SDS011;667;48.796;9.480;2023-02-22T15:26:15;14.43;;;10.90;;
1346;SDS011;667;48.796;9.480;2023-02-22T15:28:52;15.73;;;12.55;;
1346;SDS011;667;48.796;9.480;2023-02-22T15:36:43;15.00;;;11.00;;
1346;SDS011;667;48.796;9.480;2023-02-22T15:39:20;15.10;;;10.87;;
1346;SDS011;667;48.796;9.480;2023-02-22T15:42:07;16.93;;;10.23;;
1346;SDS011;667;48.796;9.480;2023-02-22T15:44:35;12.00;;;10.57;;
1346;SDS011;667;48.796;9.480;2023-02-22T15:47:03;11.48;;;10.25;;
1346;SDS011;667;48.796;9.480;2023-02-22T15:49:29;12.25;;;10.85;;
1346;SDS011;667;48.796;9.480;2023-02-22T15:52:17;13.02;;;11.02;;
1346;SDS011;667;48.796;9.480;2023-02-22T15:54:46;15.07;;;11.67;;
1346;SDS011;667;48.796;9.480;2023-02-22T15:57:17;14.95;;;11.68;;
1346;SDS011;667;48.796;9.480;2023-02-22T15:59:47;15.15;;;13.57;;
1346;SDS011;667;48.796;9.480;2023-02-22T16:02:23;13.37;;;11.97;;
1346;SDS011;667;48.796;9.480;2023-02-22T16:05:01;14.98;;;11.45;;
1346;SDS011;667;48.796;9.480;2023-02-22T16:07:38;14.93;;;12.57;;
1346;SDS011;667;48.796;9.480;2023-02-22T16:10:28;17.83;;;10.75;;
1346;SDS011;667;48.796;9.480;2023-02-22T16:13:31;15.73;;;12.27;;
1346;SDS011;667;48.796;9.480;2023-02-22T16:16:04;12.90;;;11.02;;
1346;SDS011;667;48.796;9.480;2023-02-22T16:18:46;13.77;;;11.20;;
1346;SDS011;667;48.796;9.480;2023-02-22T16:21:14;14.70;;;12.48;;
1346;SDS011;667;48.796;9.480;2023-02-22T16:23:51;20.55;;;12.05;;
1346;SDS011;667;48.796;9.480;2023-02-22T16:26:32;14.68;;;12.77;;
1346;SDS011;667;48.796;9.480;2023-02-22T16:29:06;12.32;;;10.77;;
1346;SDS011;667;48.796;9.480;2023-02-22T16:31:37;11.40;;;10.20;;
1346;SDS011;667;48.796;9.480;2023-02-22T16:34:04;12.20;;;10.93;;
1346;SDS011;667;48.796;9.480;2023-02-22T16:36:35;17.05;;;13.40;;
1346;SDS011;667;48.796;9.480;2023-02-22T16:39:07;14.50;;;12.45;;
1346;SDS011;667;48.796;9.480;2023-02-22T16:41:38;13.45;;;10.73;;
1346;SDS011;667;48.796;9.480;2023-02-22T16:44:03;11.07;;;9.13;;
1346;SDS011;667;48.796;9.480;2023-02-22T16:46:31;10.20;;;7.57;;
1346;SDS011;667;48.796;9.480;2023-02-22T16:48:58;11.35;;;7.75;;
1346;SDS011;667;48.796;9.480;2023-02-22T16:51:27;8.45;;;7.53;;
1346;SDS011;667;48.796;9.480;2023-02-22T16:53:56;8.07;;;7.28;;
1346;SDS011;667;48.796;9.480;2023-02-22T16:56:25;9.67;;;6.60;;
1346;SDS011;667;48.796;9.480;2023-02-22T16:58:53;13.00;;;8.35;;
1346;SDS011;667;48.796;9.480;2023-02-22T17:01:19;10.33;;;8.33;;
1346;SDS011;667;48.796;9.480;2023-02-22T17:03:47;7.05;;;6.25;;
1346;SDS011;667;48.796;9.480;2023-02-22T17:06:14;11.40;;;7.40;;
1346;SDS011;667;48.796;9.480;2023-02-22T17:08:40;9.73;;;8.00;;
1346;SDS011;667;48.796;9.480;2023-02-22T17:11:06;8.40;;;7.37;;
1346;SDS011;667;48.796;9.480;2023-02-22T17:13:35;8.55;;;7.55;;
1346;SDS011;667;48.796;9.480;2023-02-22T17:16:01;8.27;;;7.43;;
1346;SDS011;667;48.796;9.480;2023-02-22T17:18:27;11.07;;;7.60;;
1346;SDS011;667;48.796;9.480;2023-02-22T17:20:57;9.85;;;7.03;;
1346;SDS011;667;48.796;9.480;2023-02-22T17:23:24;8.35;;;7.55;;
1346;SDS011;667;48.796;9.480;2023-02-22T17:26:00;8.60;;;7.38;;
1346;SDS011;667;48.796;9.480;2023-02-22T17:28:27;11.13;;;8.10;;
1346;SDS011;667;48.796;9.480;2023-02-22T17:30:54;8.07;;;6.80;;
1346;SDS011;667;48.796;9.480;2023-02-22T17:33:25;13.10;;;7.55;;
1346;SDS011;667;48.796;9.480;2023-02-22T17:35:54;23.08;;;15.77;;
1346;SDS011;667;48.796;9.480;2023-02-22T17:38:22;12.80;;;9.07;;
1346;SDS011;667;48.796;9.480;2023-02-22T17:40:48;10.82;;;8.75;;
1346;SDS011;667;48.796;9.480;2023-02-22T17:43:18;8.68;;;7.43;;
1346;SDS011;667;48.796;9.480;2023-02-22T17:45:44;7.97;;;7.18;;
1346;SDS011;667;48.796;9.480;2023-02-22T17:48:10;11.03;;;7.10;;
1346;SDS011;667;48.796;9.480;2023-02-22T17:50:38;10.63;;;7.78;;
1346;SDS011;667;48.796;9.480;2023-02-22T17:53:05;11.50;;;9.70;;
1346;SDS011;667;48.796;9.480;2023-02-22T17:55:31;10.45;;;9.30;;
1346;SDS011;667;48.796;9.480;2023-02-22T17:58:01;9.02;;;8.07;;
1346;SDS011;667;48.796;9.480;2023-02-22T18:00:29;10.77;;;9.17;;
1346;SDS011;667;48.796;9.480;2023-02-22T18:02:58;10.65;;;8.48;;
1346;SDS011;667;48.796;9.480;2023-02-22T18:05:25;11.55;;;9.57;;
1346;SDS011;667;48.796;9.480;2023-02-22T18:07:51;9.63;;;8.63;;
1346;SDS011;667;48.796;9.480;2023-02-22T18:10:17;11.33;;;10.23;;
1346;SDS011;667;48.796;9.480;2023-02-22T18:12:44;8.95;;;7.80;;
1346;SDS011;667;48.796;9.480;2023-02-22T18:15:12;10.48;;;7.55;;
1346;SDS011;667;48.796;9.480;2023-02-22T18:17:41;9.18;;;8.27;;